Springfield, Minnesota
Current Conditions -  °F | °C
As of 7:23 PM on Monday 24 Nov 2014 (Local Time) from KRWF Reporting Station
Scattered Clouds Scattered Clouds  
Wind Chill:   Ceiling: Unl
Heat Index: 19°   Visibility: 10mi
Dew Point: 12°   Wind: 20mph
Humidity: 74%   Direction: 320°NW
Pressure: 29.88"   Gusts: 28mph
Location:  44.24°N, 94.98°W
Report Text: KRWF 250123Z AUTO 32017G24KT 10SM SCT017 M07/M11 A2988 RMK AO2 PK WND 32029/0112 T10721111
Loading
Personal Weather Stations






























Interactive Weather Map New forecast layout! Learn more

10-Day Weather Forecast

Advertisements
Track Severe Weather on mobile